Terminal Aerodrome Forecast
Issued by NWS Albany, NY

Home | Current Version | Previous Version | Text Only | Print | Product List | Glossary On
Versions: 1 2 3 4 5 6 7 8 9 10 11 12 13
153
FTUS41 KALY 221739
TAFGFL
TAF
KGFL 221739Z 2218/2318 17007KT 6SM -SHRA BR SCT010 OVC020
     FM222200 17007KT 6SM BR VCSH SCT005 OVC010
     FM230000 VRB03KT 2SM BR BKN008 OVC010
     FM230500 24003KT 1 1/2SM BR SCT005 BKN050
     FM231000 VRB03KT 4SM BR SCT250
      AMD NOT SKED=

USA.gov is the U.S. government's official web portal to all federal, state and local government web resources and services.